Terminal Aerodrome Forecast
Issued by NWS

Home | Current Version | Previous Version | Text Only | Print | Product List | Glossary On
Versions: 1 2 3 4 5 6 7 8 9 10 11 12 13 14 15
000
FTUS43 KDLH 290500
TAFBRD
TAF
KBRD 290520Z 2906/3006 33005KT P6SM SCT100
     FM291500 32006KT P6SM SCT045
     FM291800 32011G18KT P6SM SCT050
     FM300100 34005KT P6SM SCT050=

USA.gov is the U.S. government's official web portal to all federal, state and local government web resources and services.